createdAt,value
2022-11-16T00:00:58.694Z,7.4
2022-11-16T00:02:01.310Z,7.4
2022-11-16T00:03:03.630Z,7.3
2022-11-16T00:04:05.948Z,7.3
2022-11-16T00:05:08.707Z,7.4
2022-11-16T00:06:10.627Z,7.4
2022-11-16T00:07:12.713Z,7.4
2022-11-16T00:08:19.628Z,7.4
2022-11-16T00:09:21.646Z,7.4
2022-11-16T00:10:23.656Z,7.5
2022-11-16T00:11:25.646Z,7.5
2022-11-16T00:12:28.826Z,7.5
2022-11-16T00:13:31.647Z,7.5
2022-11-16T00:14:33.646Z,7.5
2022-11-16T00:15:35.689Z,7.5
2022-11-16T00:16:37.667Z,7.5
2022-11-16T00:17:39.671Z,7.5
2022-11-16T00:18:41.647Z,7.5
2022-11-16T00:19:43.646Z,7.5
2022-11-16T00:20:45.746Z,7.5
2022-11-16T00:21:47.640Z,7.5
2022-11-16T00:22:49.807Z,7.5
2022-11-16T00:23:52.666Z,7.5
2022-11-16T00:24:55.348Z,7.5
2022-11-16T00:25:56.676Z,7.5
2022-11-16T00:26:58.908Z,7.6
2022-11-16T00:28:00.688Z,7.7
2022-11-16T00:29:02.667Z,7.7
2022-11-16T00:30:04.747Z,7.7
2022-11-16T00:31:07.406Z,7.7
2022-11-16T00:32:09.636Z,7.8
2022-11-16T00:33:11.652Z,7.8
2022-11-16T00:34:13.687Z,7.7
2022-11-16T00:35:15.712Z,7.7
2022-11-16T00:36:17.637Z,7.7
2022-11-16T00:37:19.634Z,7.7
2022-11-16T00:38:21.627Z,7.7
2022-11-16T00:39:23.615Z,7.7
2022-11-16T00:40:25.727Z,7.7
2022-11-16T00:41:27.655Z,7.7
2022-11-16T00:42:29.648Z,7.7
2022-11-16T00:43:31.648Z,7.7
2022-11-16T00:44:33.689Z,7.7
2022-11-16T00:45:35.668Z,7.7
2022-11-16T00:46:37.693Z,7.7
2022-11-16T00:47:39.747Z,7.7
2022-11-16T00:48:41.739Z,7.7
2022-11-16T00:49:43.695Z,7.8
2022-11-16T00:50:45.686Z,7.8
2022-11-16T00:51:47.686Z,7.7
2022-11-16T00:52:49.606Z,7.8
2022-11-16T00:53:51.647Z,7.8
2022-11-16T00:54:53.770Z,7.8
2022-11-16T00:55:55.648Z,7.8
2022-11-16T00:56:57.661Z,7.7
2022-11-16T00:57:59.688Z,7.8
2022-11-16T00:59:01.666Z,7.8
2022-11-16T01:00:03.687Z,7.7
2022-11-16T01:01:05.707Z,7.7
2022-11-16T01:02:07.926Z,7.7
2022-11-16T01:03:09.635Z,7.8
2022-11-16T01:04:11.659Z,7.8
2022-11-16T01:05:13.694Z,7.8
2022-11-16T01:06:15.675Z,7.8
2022-11-16T01:07:17.863Z,7.8
2022-11-16T01:08:19.652Z,7.9
2022-11-16T01:09:21.667Z,7.9
2022-11-16T01:10:23.774Z,7.9
2022-11-16T01:11:25.815Z,7.9
2022-11-16T01:12:28.716Z,7.9
2022-11-16T01:13:30.648Z,7.9
2022-11-16T01:14:32.647Z,7.9
2022-11-16T01:15:34.648Z,7.8
2022-11-16T01:16:37.570Z,7.8
2022-11-16T01:17:39.738Z,7.8
2022-11-16T01:18:41.706Z,7.7
2022-11-16T01:19:43.941Z,7.7
2022-11-16T01:20:46.174Z,7.7
2022-11-16T01:21:48.670Z,7.7
2022-11-16T01:22:50.686Z,7.8
2022-11-16T01:23:52.622Z,7.8
2022-11-16T01:24:54.774Z,7.9
2022-11-16T01:25:56.996Z,7.9
2022-11-16T01:26:59.674Z,8
2022-11-16T01:28:01.688Z,8
2022-11-16T01:29:03.736Z,8
2022-11-16T01:30:05.686Z,8
2022-11-16T01:31:08.145Z,8
2022-11-16T01:32:10.725Z,8
2022-11-16T01:33:12.708Z,7.9
2022-11-16T01:34:14.676Z,8
2022-11-16T01:35:16.731Z,8
2022-11-16T01:36:19.046Z,7.9
2022-11-16T01:37:21.609Z,7.9
2022-11-16T01:38:27.191Z,7.9
2022-11-16T01:39:26.247Z,7.9
2022-11-16T01:40:28.386Z,8
2022-11-16T01:41:29.667Z,7.9
2022-11-16T01:42:31.656Z,7.9
2022-11-16T01:43:34.127Z,7.9
2022-11-16T01:44:36.906Z,7.8
2022-11-16T01:45:39.488Z,7.7
2022-11-16T01:46:40.667Z,7.8
2022-11-16T01:47:42.636Z,7.8
2022-11-16T01:48:44.710Z,7.8
2022-11-16T01:49:46.655Z,7.9
2022-11-16T01:50:48.932Z,7.9
2022-11-16T01:51:51.726Z,8
2022-11-16T01:52:53.626Z,8
2022-11-16T01:53:55.630Z,8
2022-11-16T01:54:57.707Z,8.1
2022-11-16T01:56:00.126Z,8.1
2022-11-16T01:57:01.755Z,8.1
2022-11-16T01:58:03.666Z,8.1
2022-11-16T01:59:06.086Z,8.1
2022-11-16T02:00:08.690Z,8.1
2022-11-16T02:01:10.906Z,8.1
2022-11-16T02:02:13.688Z,8.2
2022-11-16T02:03:16.736Z,8.2
2022-11-16T02:07:19.820Z,8.2
2022-11-16T02:08:21.636Z,8.2
2022-11-16T02:09:23.617Z,8.2
2022-11-16T02:10:25.677Z,8.2
2022-11-16T02:11:27.697Z,8.2
2022-11-16T02:12:29.637Z,8.3
2022-11-16T02:13:31.639Z,8.2
2022-11-16T02:14:33.659Z,8.2
2022-11-16T02:15:35.696Z,8.2
2022-11-16T02:16:37.998Z,8.2
2022-11-16T02:17:39.635Z,8.2
2022-11-16T02:18:40.599Z,8.2
2022-11-16T02:19:42.635Z,8.2
2022-11-16T02:20:43.685Z,8.1
2022-11-16T02:21:45.058Z,8.2
2022-11-16T02:22:46.669Z,8.2
2022-11-16T02:23:47.653Z,8.2
2022-11-16T02:24:48.597Z,8.2
2022-11-16T02:25:49.636Z,8.2
2022-11-16T02:26:50.695Z,8.2
2022-11-16T02:27:51.596Z,8.3
2022-11-16T02:28:53.656Z,8.3
2022-11-16T02:29:55.655Z,8.3
2022-11-16T02:30:57.674Z,8.3
2022-11-16T02:31:59.755Z,8.3
2022-11-16T02:33:01.795Z,8.3
2022-11-16T02:34:03.716Z,8.3
2022-11-16T02:35:05.654Z,8.3
2022-11-16T02:36:07.675Z,8.3
2022-11-16T02:37:09.655Z,8.4
2022-11-16T02:38:11.699Z,8.4
2022-11-16T02:39:13.816Z,8.4
2022-11-16T02:40:15.894Z,8.4
2022-11-16T02:41:17.635Z,8.4
2022-11-16T02:42:19.654Z,8.4
2022-11-16T02:43:21.735Z,8.4
2022-11-16T02:44:23.635Z,8.4
2022-11-16T02:45:25.893Z,8.4
2022-11-16T02:46:27.775Z,8.4
2022-11-16T02:47:29.923Z,8.4
2022-11-16T02:48:32.458Z,8.4
2022-11-16T02:49:33.736Z,8.3
2022-11-16T02:50:35.995Z,8.2
2022-11-16T02:51:37.995Z,8.1
2022-11-16T02:52:39.674Z,8
2022-11-16T02:53:40.658Z,8.1
2022-11-16T02:54:41.696Z,8.1
2022-11-16T02:55:43.654Z,8
2022-11-16T02:56:44.618Z,8.1
2022-11-16T02:57:46.054Z,8.1
2022-11-16T02:58:47.655Z,8.1
2022-11-16T02:59:49.654Z,8.2
2022-11-16T03:00:51.818Z,8.1
2022-11-16T03:01:53.714Z,8.1
2022-11-16T03:02:55.645Z,8
2022-11-16T03:03:56.683Z,8
2022-11-16T03:04:58.036Z,8
2022-11-16T03:05:59.656Z,8.1
2022-11-16T03:07:01.138Z,8.1
2022-11-16T03:08:02.833Z,8.1
2022-11-16T03:09:04.739Z,8.1
2022-11-16T03:10:07.298Z,8.2
2022-11-16T03:11:08.635Z,8.2
2022-11-16T03:12:10.634Z,8.2
2022-11-16T03:13:12.764Z,8.2
2022-11-16T03:14:14.842Z,8.2
2022-11-16T03:15:16.675Z,8.2
2022-11-16T03:16:17.635Z,8.2
2022-11-16T03:17:19.755Z,8.1
2022-11-16T03:18:21.654Z,8
2022-11-16T03:19:23.634Z,8
2022-11-16T03:20:24.655Z,8
2022-11-16T03:21:25.614Z,8
2022-11-16T03:22:26.736Z,8.1
2022-11-16T03:23:28.634Z,8.1
2022-11-16T03:24:30.787Z,8.1
2022-11-16T03:25:32.699Z,8.2
2022-11-16T03:26:34.655Z,8.1
2022-11-16T03:27:36.618Z,8.1
2022-11-16T03:28:39.140Z,8.1
2022-11-16T03:29:40.991Z,8.1
2022-11-16T03:30:42.812Z,8
2022-11-16T03:31:45.014Z,7.9
2022-11-16T03:32:51.653Z,7.9
2022-11-16T03:33:53.670Z,8
2022-11-16T03:34:55.655Z,8
2022-11-16T03:35:57.779Z,8
2022-11-16T03:36:59.655Z,8.1
2022-11-16T03:38:00.862Z,8.1
2022-11-16T03:39:02.734Z,8.1
2022-11-16T03:40:04.844Z,8
2022-11-16T03:41:07.254Z,8
2022-11-16T03:42:08.771Z,8
2022-11-16T03:43:10.743Z,7.9
2022-11-16T03:44:12.697Z,7.9
2022-11-16T03:45:14.715Z,7.8
2022-11-16T03:46:15.703Z,7.7
2022-11-16T03:47:16.680Z,7.7
2022-11-16T03:48:17.714Z,7.7
2022-11-16T03:49:18.635Z,7.6
2022-11-16T03:50:20.775Z,7.5
2022-11-16T03:51:22.695Z,7.5
2022-11-16T03:52:24.715Z,7.5
2022-11-16T03:53:26.696Z,7.6
2022-11-16T03:54:29.663Z,7.5
2022-11-16T03:55:30.808Z,7.5
2022-11-16T03:56:32.759Z,7.5
2022-11-16T03:57:34.675Z,7.5
2022-11-16T03:58:37.115Z,7.5
2022-11-16T03:59:38.695Z,7.3
2022-11-16T04:00:40.814Z,7.3
2022-11-16T04:01:44.835Z,7.3
2022-11-16T04:02:44.683Z,7.3
2022-11-16T04:03:46.737Z,7.3
2022-11-16T04:04:48.695Z,7.3
2022-11-16T04:05:50.642Z,7.3
2022-11-16T04:06:52.728Z,7.2
2022-11-16T04:07:54.686Z,7.2
2022-11-16T04:08:56.743Z,7.2
2022-11-16T04:09:58.674Z,7.2
2022-11-16T04:10:59.699Z,7.1
2022-11-16T04:12:01.054Z,7
2022-11-16T04:13:02.676Z,7
2022-11-16T04:14:08.876Z,6.9
2022-11-16T04:15:06.714Z,6.8
2022-11-16T04:16:08.835Z,6.8
2022-11-16T04:17:11.247Z,6.9
2022-11-16T04:18:12.714Z,6.9
2022-11-16T04:19:13.726Z,6.9
2022-11-16T04:20:14.763Z,6.9
2022-11-16T04:21:17.217Z,6.8
2022-11-16T04:22:18.694Z,6.8
2022-11-16T04:23:20.730Z,6.7
2022-11-16T04:24:22.722Z,6.7
2022-11-16T04:25:25.174Z,6.7
2022-11-16T04:26:27.199Z,6.7
2022-11-16T04:27:28.766Z,6.5
2022-11-16T04:28:30.776Z,6.5
2022-11-16T04:29:32.777Z,6.5
2022-11-16T04:30:35.596Z,6.4
2022-11-16T04:31:36.714Z,6.5
2022-11-16T04:32:38.695Z,6.5
2022-11-16T04:33:39.695Z,6.4
2022-11-16T04:34:40.760Z,6.4
2022-11-16T04:35:42.696Z,6.5
2022-11-16T04:36:44.803Z,6.5
2022-11-16T04:37:47.065Z,6.6
2022-11-16T04:38:48.896Z,6.6
2022-11-16T04:39:50.699Z,6.6
2022-11-16T04:40:52.747Z,6.7
2022-11-16T04:41:54.724Z,6.7
2022-11-16T04:42:56.835Z,6.8
2022-11-16T04:43:59.124Z,6.7
2022-11-16T04:45:00.722Z,6.8
2022-11-16T04:46:01.749Z,6.8
2022-11-16T04:47:03.695Z,6.8
2022-11-16T04:48:05.756Z,6.7
2022-11-16T04:49:07.695Z,6.7
2022-11-16T04:50:09.926Z,6.6
2022-11-16T04:51:11.696Z,6.5
2022-11-16T04:52:12.696Z,6.4
2022-11-16T04:53:13.695Z,6.4
2022-11-16T04:54:14.715Z,6.4
2022-11-16T04:55:15.783Z,6.2
2022-11-16T04:56:17.779Z,6.1
2022-11-16T04:57:19.749Z,6.1
2022-11-16T04:58:21.755Z,6.1
2022-11-16T04:59:23.896Z,6.2
2022-11-16T05:00:25.732Z,6.3
2022-11-16T05:01:27.747Z,6.3
2022-11-16T05:02:29.697Z,6.3
2022-11-16T05:03:30.724Z,6.4
2022-11-16T05:04:31.765Z,6.3
2022-11-16T05:05:32.709Z,6.2
2022-11-16T05:06:34.736Z,6.2
2022-11-16T05:07:36.710Z,6.2
2022-11-16T05:08:38.696Z,6.2
2022-11-16T05:09:40.695Z,6.2
2022-11-16T05:10:42.737Z,6.3
2022-11-16T05:11:43.757Z,6.3
2022-11-16T05:12:44.720Z,6.2
2022-11-16T05:13:46.356Z,6.1
2022-11-16T05:14:48.016Z,6
2022-11-16T05:15:50.546Z,6
2022-11-16T05:16:52.677Z,5.9
2022-11-16T05:17:54.999Z,6
2022-11-16T05:18:57.636Z,5.9
2022-11-16T05:19:59.024Z,6
2022-11-16T05:21:00.776Z,6.1
2022-11-16T05:22:02.730Z,6
2022-11-16T05:23:04.695Z,6.1
2022-11-16T05:24:07.327Z,6
2022-11-16T05:25:08.697Z,6
2022-11-16T05:26:10.668Z,6
2022-11-16T05:27:12.759Z,6
2022-11-16T05:28:13.760Z,6
2022-11-16T05:29:14.857Z,5.9
2022-11-16T05:30:17.236Z,5.9
2022-11-16T05:31:18.708Z,5.9
2022-11-16T05:32:20.750Z,6.1
2022-11-16T05:33:22.703Z,6.1
2022-11-16T05:34:23.716Z,6.2
2022-11-16T05:35:24.702Z,6.2
2022-11-16T05:36:25.676Z,6.3
2022-11-16T05:37:26.769Z,6.3
2022-11-16T05:38:27.798Z,6.2
2022-11-16T05:39:29.718Z,6.1
2022-11-16T05:40:30.676Z,6.1
2022-11-16T05:41:32.676Z,6
2022-11-16T05:42:34.698Z,6
2022-11-16T05:43:35.726Z,5.9
2022-11-16T05:44:36.795Z,5.9
2022-11-16T05:45:37.698Z,6
2022-11-16T05:46:38.696Z,6
2022-11-16T05:47:40.656Z,6.1
2022-11-16T05:48:43.698Z,6.1
2022-11-16T05:49:45.016Z,6.1
2022-11-16T05:50:46.697Z,6.1
2022-11-16T05:51:48.685Z,6
2022-11-16T05:52:50.677Z,6
2022-11-16T05:53:52.933Z,5.8
2022-11-16T05:54:55.028Z,5.8
2022-11-16T05:55:56.783Z,5.8
2022-11-16T05:56:59.000Z,5.8
2022-11-16T05:58:01.018Z,5.8
2022-11-16T05:59:02.808Z,5.9
2022-11-16T06:00:03.863Z,5.9
2022-11-16T06:01:05.755Z,5.9
2022-11-16T06:02:07.824Z,5.9
2022-11-16T06:03:09.795Z,5.8
2022-11-16T06:04:11.797Z,5.8
2022-11-16T06:05:13.782Z,5.8
2022-11-16T06:06:15.685Z,5.8
2022-11-16T06:07:16.770Z,5.8
2022-11-16T06:08:17.717Z,5.8
2022-11-16T06:09:18.719Z,5.8
2022-11-16T06:10:19.743Z,5.7
2022-11-16T06:11:20.737Z,5.7
2022-11-16T06:12:21.719Z,5.7
2022-11-16T06:13:22.840Z,5.7
2022-11-16T06:14:25.740Z,5.6
2022-11-16T06:15:27.796Z,5.4
2022-11-16T06:16:30.562Z,5.5
2022-11-16T06:17:31.766Z,5.5
2022-11-16T06:18:32.911Z,5.6
2022-11-16T06:19:33.699Z,5.7
2022-11-16T06:20:34.737Z,5.8
2022-11-16T06:21:37.759Z,5.9
2022-11-16T06:22:40.659Z,5.8
2022-11-16T06:23:42.797Z,5.8
2022-11-16T06:24:44.695Z,5.9
2022-11-16T06:25:45.683Z,6
2022-11-16T06:26:47.162Z,6
2022-11-16T06:27:48.852Z,6
2022-11-16T06:28:50.738Z,6
2022-11-16T06:29:52.672Z,6
2022-11-16T06:30:54.055Z,6
2022-11-16T06:31:55.940Z,6
2022-11-16T06:32:57.737Z,6
2022-11-16T06:33:59.717Z,6
2022-11-16T06:35:01.716Z,5.9
2022-11-16T06:36:02.948Z,6
2022-11-16T06:37:04.714Z,6
2022-11-16T06:38:06.957Z,6.1
2022-11-16T06:39:08.762Z,6.2
2022-11-16T06:40:10.763Z,6.2
2022-11-16T06:41:12.785Z,6.2
2022-11-16T06:42:14.903Z,6.1
2022-11-16T06:43:17.116Z,6
2022-11-16T06:44:18.997Z,6.1
2022-11-16T06:45:20.756Z,6.1
2022-11-16T06:46:21.698Z,6.1
2022-11-16T06:47:23.197Z,6.2
2022-11-16T06:48:24.777Z,6.2
2022-11-16T06:49:26.731Z,6.2
2022-11-16T06:50:29.119Z,6.2
2022-11-16T06:51:30.797Z,6.1
2022-11-16T06:52:33.116Z,6.2
2022-11-16T06:53:34.737Z,6.2
2022-11-16T06:54:36.741Z,6.2
2022-11-16T06:55:38.756Z,6.1
2022-11-16T06:56:40.737Z,6.1
2022-11-16T06:57:42.756Z,6.1
2022-11-16T06:58:44.998Z,6.2
2022-11-16T06:59:46.782Z,6.2
2022-11-16T07:00:48.756Z,6.3
2022-11-16T07:01:50.839Z,6.4
2022-11-16T07:02:53.132Z,6.4
2022-11-16T07:03:54.817Z,6.4
2022-11-16T07:04:59.309Z,6.5
2022-11-16T07:05:56.996Z,6.6
2022-11-16T07:06:58.990Z,6.7
2022-11-16T07:08:00.917Z,6.6
2022-11-16T07:09:03.457Z,6.6
2022-11-16T07:10:05.411Z,6.5
2022-11-16T07:11:06.724Z,6.5
2022-11-16T07:12:08.797Z,6.4
2022-11-16T07:13:10.806Z,6.5
2022-11-16T07:14:12.762Z,6.4
2022-11-16T07:15:16.039Z,6.3
2022-11-16T07:16:17.939Z,6.3
2022-11-16T07:17:19.733Z,6.2
2022-11-16T07:18:20.804Z,6.1
2022-11-16T07:19:22.797Z,6.1
2022-11-16T07:20:25.117Z,5.9
2022-11-16T07:21:26.841Z,5.8
2022-11-16T07:22:28.758Z,5.8
2022-11-16T07:23:30.907Z,5.8
2022-11-16T07:24:32.740Z,5.9
2022-11-16T07:25:34.810Z,6
2022-11-16T07:26:37.137Z,6.1
2022-11-16T07:27:38.757Z,6.3
2022-11-16T07:28:43.464Z,6.5
2022-11-16T07:29:42.728Z,6.6
2022-11-16T07:30:44.437Z,6.6
2022-11-16T07:31:45.783Z,6.7
2022-11-16T07:32:47.776Z,6.8
2022-11-16T07:33:49.999Z,6.9
2022-11-16T07:34:51.776Z,6.8
2022-11-16T07:35:53.857Z,6.8
2022-11-16T07:36:55.762Z,6.7
2022-11-16T07:37:57.797Z,6.7
2022-11-16T07:38:58.825Z,6.7
2022-11-16T07:39:59.780Z,6.7
2022-11-16T07:41:01.217Z,6.7
2022-11-16T07:42:03.098Z,6.7
2022-11-16T07:43:04.817Z,6.6
2022-11-16T07:44:11.865Z,6.7
2022-11-16T07:45:08.854Z,6.6
2022-11-16T07:46:45.758Z,6.7
2022-11-16T07:47:12.849Z,6.7
2022-11-16T07:48:14.777Z,6.7
2022-11-16T07:49:17.154Z,6.7
2022-11-16T07:50:18.802Z,6.8
2022-11-16T07:51:20.878Z,6.8
2022-11-16T07:52:22.777Z,6.8
2022-11-16T07:53:24.878Z,6.8
2022-11-16T07:54:26.797Z,6.9
2022-11-16T07:55:28.837Z,6.9
2022-11-16T07:56:31.075Z,6.9
2022-11-16T07:57:32.800Z,6.9
2022-11-16T07:58:36.379Z,7
2022-11-16T07:59:37.845Z,6.9
2022-11-16T08:00:39.837Z,7
2022-11-16T08:01:41.923Z,7.1
2022-11-16T08:02:43.849Z,7
2022-11-16T08:03:46.158Z,7.1
2022-11-16T08:04:47.997Z,7.1
2022-11-16T08:05:49.857Z,7.1
2022-11-16T08:06:51.996Z,7.2
2022-11-16T08:07:53.856Z,7.3
2022-11-16T08:08:58.492Z,7.3
2022-11-16T08:09:57.995Z,7.3
2022-11-16T08:10:59.798Z,7.4
2022-11-16T08:12:00.803Z,7.4
2022-11-16T08:13:03.038Z,7.4
2022-11-16T08:14:04.860Z,7.5
2022-11-16T08:15:06.985Z,7.5
2022-11-16T08:16:08.752Z,7.6
2022-11-16T08:17:09.836Z,7.7
2022-11-16T08:18:12.180Z,7.7
2022-11-16T08:19:13.877Z,7.8
2022-11-16T08:20:16.194Z,7.8
2022-11-16T08:21:17.837Z,7.9
2022-11-16T08:22:19.976Z,7.9
2022-11-16T08:23:21.856Z,7.9
2022-11-16T08:24:24.159Z,7.9
2022-11-16T08:25:25.842Z,8
2022-11-16T08:26:26.834Z,7.9
2022-11-16T08:27:28.722Z,7.9
2022-11-16T08:28:31.328Z,7.8
2022-11-16T08:29:33.678Z,7.7
2022-11-16T08:30:34.874Z,7.8
2022-11-16T08:31:37.736Z,7.8
2022-11-16T08:32:38.778Z,7.8
2022-11-16T08:33:39.920Z,7.8
2022-11-16T08:34:42.033Z,7.8
2022-11-16T08:35:43.932Z,7.7
2022-11-16T08:36:46.519Z,7.7
2022-11-16T08:37:47.796Z,7.7
2022-11-16T08:38:49.024Z,7.7
2022-11-16T08:39:50.809Z,7.7
2022-11-16T08:40:52.824Z,7.8
2022-11-16T08:41:54.884Z,7.7
2022-11-16T08:42:57.082Z,7.6
2022-11-16T08:43:58.875Z,7.6
2022-11-16T08:45:00.780Z,7.6
2022-11-16T08:46:01.858Z,7.7
2022-11-16T08:47:03.898Z,7.7
2022-11-16T08:48:05.903Z,7.7
2022-11-16T08:49:08.137Z,7.7
2022-11-16T08:50:09.786Z,7.5
2022-11-16T08:51:20.093Z,7.4
2022-11-16T08:52:14.205Z,7.3
2022-11-16T08:53:16.662Z,7.3
2022-11-16T08:54:17.882Z,7.3
2022-11-16T08:55:18.816Z,7.3
2022-11-16T08:56:20.818Z,7.3
2022-11-16T08:57:22.822Z,7.3
2022-11-16T08:58:24.960Z,7.4
2022-11-16T08:59:27.002Z,7.4
2022-11-16T09:00:29.156Z,7.5
2022-11-16T09:01:32.129Z,7.5
2022-11-16T09:02:34.072Z,7.5
2022-11-16T09:03:35.955Z,7.6
2022-11-16T09:04:37.827Z,7.5
2022-11-16T09:05:39.916Z,7.6
2022-11-16T09:06:42.900Z,7.5
2022-11-16T09:07:44.976Z,7.5
2022-11-16T09:08:46.896Z,7.6
2022-11-16T09:09:48.822Z,7.6
2022-11-16T09:10:51.017Z,7.6
2022-11-16T09:11:53.357Z,7.6
2022-11-16T09:12:55.332Z,7.6
2022-11-16T09:13:58.124Z,7.4
2022-11-16T09:15:00.215Z,7.4
2022-11-16T09:16:01.840Z,7.4
2022-11-16T09:17:03.981Z,7.4
2022-11-16T09:18:05.909Z,7.4
2022-11-16T09:19:07.935Z,7.4
2022-11-16T09:20:10.401Z,7.5
2022-11-16T09:21:11.896Z,7.5
2022-11-16T09:22:14.161Z,7.3
2022-11-16T09:23:17.034Z,7.3
2022-11-16T09:24:16.896Z,7.3
2022-11-16T09:25:18.855Z,7.3
2022-11-16T09:26:21.735Z,7.4
2022-11-16T09:27:23.638Z,7.5
2022-11-16T09:28:24.835Z,7.6
2022-11-16T09:29:26.844Z,7.6
2022-11-16T09:30:29.484Z,7.7
2022-11-16T09:31:31.156Z,7.7
2022-11-16T09:32:33.156Z,7.7
2022-11-16T09:33:35.175Z,7.7
2022-11-16T09:34:36.876Z,7.7
2022-11-16T09:35:39.567Z,7.7
2022-11-16T09:36:41.877Z,7.5
2022-11-16T09:37:44.003Z,7.5
2022-11-16T09:39:14.325Z,7.5
2022-11-16T09:39:47.918Z,7.3
2022-11-16T09:40:49.876Z,7.3
2022-11-16T09:41:51.876Z,7.3
2022-11-16T09:42:53.818Z,7.4
2022-11-16T09:43:55.937Z,7.4
2022-11-16T09:44:57.875Z,7.4
2022-11-16T09:46:00.116Z,7.5
2022-11-16T09:47:01.935Z,7.6
2022-11-16T09:48:03.938Z,7.6
2022-11-16T09:49:16.836Z,7.6
2022-11-16T09:50:08.909Z,7.7
2022-11-16T09:51:11.276Z,7.7
2022-11-16T09:52:12.876Z,7.8
2022-11-16T09:53:15.018Z,7.8
2022-11-16T09:54:17.331Z,7.8
2022-11-16T09:55:18.849Z,7.8
2022-11-16T09:56:22.689Z,7.8
2022-11-16T09:57:23.842Z,7.9
2022-11-16T09:58:25.856Z,7.9
2022-11-16T09:59:28.136Z,7.9
2022-11-16T10:00:30.604Z,7.9
2022-11-16T10:01:31.940Z,7.9
2022-11-16T10:02:33.898Z,7.8
2022-11-16T10:03:36.040Z,7.8
2022-11-16T10:04:38.016Z,7.7
2022-11-16T10:05:39.917Z,7.7
2022-11-16T10:06:42.127Z,7.7
2022-11-16T10:07:43.915Z,7.7
2022-11-16T10:08:45.943Z,7.7
2022-11-16T10:09:48.617Z,7.7
2022-11-16T10:10:50.259Z,7.6
2022-11-16T10:11:51.906Z,7.5
2022-11-16T10:12:53.893Z,7.4
2022-11-16T10:13:55.721Z,7.5
2022-11-16T10:14:56.938Z,7.4
2022-11-16T10:15:58.812Z,7.3
2022-11-16T10:17:00.897Z,7.3
2022-11-16T10:18:01.917Z,7.1
2022-11-16T10:19:02.923Z,6.8
2022-11-16T10:20:03.932Z,6.8
2022-11-16T10:21:04.862Z,6.7
2022-11-16T10:22:05.856Z,6.8
2022-11-16T10:23:08.036Z,6.9
2022-11-16T10:24:10.258Z,6.9
2022-11-16T10:25:11.872Z,6.9
2022-11-16T10:26:13.877Z,7
2022-11-16T10:27:19.202Z,7.1
2022-11-16T10:28:16.394Z,7.1
2022-11-16T10:29:17.879Z,7.2
2022-11-16T10:30:18.920Z,7.2
2022-11-16T10:31:19.885Z,7.2
2022-11-16T10:32:21.858Z,7.3
2022-11-16T10:33:23.854Z,7.2
2022-11-16T10:34:25.849Z,7.2
2022-11-16T10:35:27.937Z,7.2
2022-11-16T10:36:31.265Z,7.3
2022-11-16T10:37:33.493Z,7.3
2022-11-16T10:38:35.220Z,7.3
2022-11-16T10:39:36.886Z,7.3
2022-11-16T10:40:39.062Z,7.3
2022-11-16T10:41:40.998Z,7.4
2022-11-16T10:42:42.878Z,7.3
2022-11-16T10:43:44.903Z,7.2
2022-11-16T10:44:47.209Z,7.2
2022-11-16T10:45:49.013Z,7.2
2022-11-16T10:46:50.931Z,7.2
2022-11-16T10:47:53.258Z,7.1
2022-11-16T10:48:55.042Z,7.2
2022-11-16T10:49:56.945Z,7.2
2022-11-16T10:50:58.938Z,7.2
2022-11-16T10:52:00.875Z,7.1
2022-11-16T10:53:01.906Z,6.9
2022-11-16T10:54:04.034Z,6.8
2022-11-16T10:55:05.996Z,6.8
2022-11-16T10:56:08.298Z,6.8
2022-11-16T10:57:10.638Z,6.8
2022-11-16T10:58:12.376Z,6.8
2022-11-16T10:59:13.957Z,6.9
2022-11-16T11:00:19.651Z,6.8
2022-11-16T11:01:17.979Z,6.9
2022-11-16T11:02:19.892Z,7
2022-11-16T11:03:22.537Z,7
2022-11-16T11:04:24.028Z,7.1
2022-11-16T11:05:25.940Z,7.2
2022-11-16T11:06:28.073Z,7.2
2022-11-16T11:07:30.110Z,7.2
2022-11-16T11:08:31.877Z,7.3
2022-11-16T11:09:34.157Z,7.3
2022-11-16T11:10:36.992Z,7.2
2022-11-16T11:11:39.058Z,7.3
2022-11-16T11:12:41.274Z,7.3
2022-11-16T11:13:43.505Z,7.4
2022-11-16T11:14:44.997Z,7.5
2022-11-16T11:15:46.862Z,7.5
2022-11-16T11:16:48.873Z,7.6
2022-11-16T11:17:50.931Z,7.6
2022-11-16T11:18:53.985Z,7.6
2022-11-16T11:19:55.900Z,7.7
2022-11-16T11:20:57.418Z,7.7
2022-11-16T11:21:58.926Z,7.6
2022-11-16T11:23:00.874Z,7.6
2022-11-16T11:24:16.317Z,7.6
2022-11-16T11:25:04.036Z,7.5
2022-11-16T11:26:07.077Z,7.4
2022-11-16T11:27:08.813Z,7.4
2022-11-16T11:28:10.896Z,7.4
2022-11-16T11:29:12.995Z,7.4
2022-11-16T11:30:14.954Z,7.4
2022-11-16T11:31:16.957Z,7.4
2022-11-16T11:32:24.061Z,7.5
2022-11-16T11:33:21.841Z,7.4
2022-11-16T11:34:22.919Z,7.3
2022-11-16T11:35:23.913Z,7.3
2022-11-16T11:36:25.837Z,7.3
2022-11-16T11:37:27.819Z,7.4
2022-11-16T11:38:29.936Z,7.4
2022-11-16T11:39:31.004Z,7.4
2022-11-16T11:40:31.996Z,7.3
2022-11-16T11:41:33.033Z,7.2
2022-11-16T11:42:33.896Z,7.2
2022-11-16T11:43:36.150Z,7.3
2022-11-16T11:44:37.885Z,7.3
2022-11-16T11:45:40.812Z,7.2
2022-11-16T11:47:18.571Z,7
2022-11-16T11:47:57.704Z,7
2022-11-16T11:48:45.897Z,6.9
2022-11-16T11:49:47.076Z,6.9
2022-11-16T11:50:49.778Z,6.9
2022-11-16T11:51:51.378Z,6.9
2022-11-16T11:52:52.936Z,6.8
2022-11-16T11:53:55.017Z,6.9
2022-11-16T11:54:56.897Z,7.1
2022-11-16T11:55:58.002Z,7.2
2022-11-16T11:57:00.051Z,7.1
2022-11-16T11:58:02.015Z,7.1
2022-11-16T11:59:04.096Z,7
2022-11-16T12:00:06.197Z,7
2022-11-16T12:01:07.952Z,7
2022-11-16T12:02:10.319Z,6.9
2022-11-16T12:03:12.142Z,7
2022-11-16T12:04:14.738Z,7.1
2022-11-16T12:05:15.970Z,7.2
2022-11-16T12:06:17.925Z,7.3
2022-11-16T12:07:20.073Z,7.3
2022-11-16T12:08:21.959Z,7.4
2022-11-16T12:09:23.943Z,7.3
2022-11-16T12:10:25.933Z,7.3
2022-11-16T12:11:26.895Z,7.3
2022-11-16T12:12:27.986Z,7.3
2022-11-16T12:13:29.926Z,7.2
2022-11-16T12:14:31.224Z,7.1
2022-11-16T12:15:32.937Z,7
2022-11-16T12:16:35.416Z,7
2022-11-16T12:17:37.016Z,7
2022-11-16T12:18:38.918Z,6.9
2022-11-16T12:19:40.946Z,6.8
2022-11-16T12:20:44.055Z,6.8
2022-11-16T12:21:47.318Z,6.7
2022-11-16T12:22:48.957Z,6.5
2022-11-16T12:23:50.136Z,6.4
2022-11-16T12:24:52.576Z,6.4
2022-11-16T12:25:54.495Z,6.4
2022-11-16T12:26:55.936Z,6.3
2022-11-16T12:27:58.087Z,6.4
2022-11-16T12:29:00.216Z,6.4
2022-11-16T12:30:02.973Z,6.4
2022-11-16T12:31:05.582Z,6.4
2022-11-16T12:32:06.929Z,6.3
2022-11-16T12:33:08.913Z,6.3
2022-11-16T12:34:11.155Z,6.3
2022-11-16T12:35:12.899Z,6.4
2022-11-16T12:36:15.027Z,6.4
2022-11-16T12:37:16.916Z,6.4
2022-11-16T12:38:21.859Z,6.5
2022-11-16T12:39:19.235Z,6.6
2022-11-16T12:40:21.466Z,6.7
2022-11-16T12:41:22.976Z,6.7
2022-11-16T12:42:24.932Z,6.6
2022-11-16T12:43:26.960Z,6.5
2022-11-16T12:44:29.695Z,6.4
2022-11-16T12:45:32.821Z,6.5
2022-11-16T12:46:34.015Z,6.6
2022-11-16T12:47:36.159Z,6.5
2022-11-16T12:48:37.937Z,6.6
2022-11-16T12:49:39.940Z,6.4
2022-11-16T12:50:41.936Z,6.4
2022-11-16T12:51:44.014Z,6.4
2022-11-16T12:52:46.616Z,6.5
2022-11-16T12:53:47.996Z,6.5
2022-11-16T12:55:18.888Z,6.5
2022-11-16T12:55:52.016Z,6.4
2022-11-16T12:56:53.915Z,6.4
2022-11-16T12:57:56.576Z,6.4
2022-11-16T12:58:58.095Z,6.3
2022-11-16T13:00:00.658Z,6.2
2022-11-16T13:01:01.987Z,6.2
2022-11-16T13:02:03.024Z,6.2
2022-11-16T13:03:04.376Z,6.2
2022-11-16T13:04:06.297Z,6.3
2022-11-16T13:05:08.375Z,6.4
2022-11-16T13:06:10.956Z,6.5
2022-11-16T13:07:13.032Z,6.6
2022-11-16T13:08:16.381Z,6.6
2022-11-16T13:09:18.069Z,6.7
2022-11-16T13:10:20.058Z,6.7
2022-11-16T13:11:22.378Z,6.7
2022-11-16T13:12:24.124Z,6.6
2022-11-16T13:13:41.374Z,6.7
2022-11-16T13:14:28.119Z,6.7
2022-11-16T13:15:30.794Z,6.7
2022-11-16T13:16:32.398Z,6.6
2022-11-16T13:17:34.877Z,6.6
2022-11-16T13:18:36.097Z,6.7
2022-11-16T13:19:38.096Z,6.7
2022-11-16T13:20:39.955Z,6.8
2022-11-16T13:21:41.964Z,6.8
2022-11-16T13:22:43.980Z,6.9
2022-11-16T13:23:46.756Z,6.9
2022-11-16T13:24:47.979Z,6.9
2022-11-16T13:25:48.884Z,7
2022-11-16T13:26:50.016Z,7
2022-11-16T13:27:51.964Z,7
2022-11-16T13:28:53.915Z,7
2022-11-16T13:29:56.105Z,7.1
2022-11-16T13:30:57.994Z,7.1
2022-11-16T13:32:00.521Z,7.1
2022-11-16T13:33:02.577Z,6.8
2022-11-16T13:34:03.976Z,6.7
2022-11-16T13:35:06.156Z,6.6
2022-11-16T13:36:07.961Z,6.6
2022-11-16T13:37:09.965Z,6.6
2022-11-16T13:38:12.507Z,6.6
2022-11-16T13:39:18.859Z,6.5
2022-11-16T13:40:14.994Z,6.6
2022-11-16T13:41:15.967Z,6.6
2022-11-16T13:42:17.260Z,6.7
2022-11-16T13:43:19.045Z,6.8
2022-11-16T13:44:20.974Z,6.8
2022-11-16T13:45:23.603Z,6.9
2022-11-16T13:46:53.967Z,7
2022-11-16T13:47:26.957Z,7.1
2022-11-16T13:48:29.425Z,7.1
2022-11-16T13:49:31.064Z,7.2
2022-11-16T13:50:37.180Z,7.2
2022-11-16T13:51:33.986Z,7.1
2022-11-16T13:52:55.479Z,7.2
2022-11-16T13:54:44.976Z,7.2
2022-11-16T13:55:39.993Z,7.2
2022-11-16T13:56:42.222Z,7.2
2022-11-16T13:57:44.028Z,7.3
2022-11-16T13:58:46.414Z,7.3
2022-11-16T13:59:47.990Z,7.4
2022-11-16T14:00:50.171Z,7.4
2022-11-16T14:01:52.404Z,7.4
2022-11-16T14:02:58.402Z,7.4
2022-11-16T14:03:56.287Z,7.5
2022-11-16T14:04:57.969Z,7.5
2022-11-16T14:06:00.255Z,7.5
2022-11-16T14:07:02.237Z,7.5
2022-11-16T14:08:04.334Z,7.6
2022-11-16T14:09:06.214Z,7.6
2022-11-16T14:10:08.968Z,7.5
2022-11-16T14:11:11.481Z,7.5
2022-11-16T14:12:13.094Z,7.5
2022-11-16T14:13:15.074Z,7.5
2022-11-16T14:14:16.942Z,7.5
2022-11-16T14:15:18.997Z,7.4
2022-11-16T14:16:21.232Z,7.5
2022-11-16T14:17:22.984Z,7.5
2022-11-16T14:18:24.946Z,7.6
2022-11-16T14:19:26.955Z,7.6
2022-11-16T14:20:29.007Z,7.6
2022-11-16T14:21:30.988Z,7.6
2022-11-16T14:22:32.033Z,7.6